createdAt,value
2019-01-29T05:02:11.262Z,1.80
2019-01-29T05:04:41.165Z,2.30
2019-01-29T05:07:10.835Z,2.27
2019-01-29T05:09:40.680Z,1.60
2019-01-29T05:12:12.159Z,2.47
2019-01-29T05:14:43.022Z,2.27
2019-01-29T05:17:12.845Z,3.30
2019-01-29T05:19:42.543Z,2.00
2019-01-29T05:22:12.418Z,4.90
2019-01-29T05:24:42.351Z,2.30
2019-01-29T05:27:12.111Z,3.93
2019-01-29T05:29:42.054Z,2.53
2019-01-29T05:32:13.267Z,3.50
2019-01-29T05:34:43.046Z,2.87
2019-01-29T05:37:13.917Z,5.67
2019-01-29T05:39:43.611Z,2.93
2019-01-29T05:42:13.445Z,2.00
2019-01-29T05:44:43.155Z,3.90
2019-01-29T05:47:13.966Z,6.83
2019-01-29T05:49:44.557Z,3.90
2019-01-29T05:52:14.198Z,1.90
2019-01-29T05:54:44.090Z,2.33
2019-01-29T05:57:13.953Z,1.73
2019-01-29T05:59:43.638Z,2.27
2019-01-29T06:02:13.493Z,2.50
2019-01-29T06:04:45.106Z,5.73
2019-01-29T06:07:16.306Z,4.37
2019-01-29T06:09:46.079Z,2.00
2019-01-29T06:12:15.889Z,1.97
2019-01-29T06:14:47.379Z,3.77
2019-01-29T06:17:17.242Z,2.50
2019-01-29T06:19:46.934Z,5.33
2019-01-29T06:22:16.868Z,16.57
2019-01-29T06:24:46.899Z,18.50
2019-01-29T06:27:16.746Z,6.60
2019-01-29T06:29:46.521Z,21.90
2019-01-29T06:32:17.503Z,6.80
2019-01-29T06:34:49.174Z,12.97
2019-01-29T06:37:19.012Z,4.30
2019-01-29T06:39:50.478Z,2.53
2019-01-29T06:42:20.596Z,4.77
2019-01-29T06:44:50.285Z,12.57
2019-01-29T06:47:20.074Z,5.60
2019-01-29T06:49:49.925Z,17.37
2019-01-29T06:52:19.797Z,2.30
2019-01-29T06:54:49.595Z,11.50
2019-01-29T06:57:19.333Z,6.30
2019-01-29T06:59:49.091Z,7.90
2019-01-29T07:02:18.954Z,7.07
2019-01-29T07:04:48.870Z,10.93
2019-01-29T07:07:18.622Z,8.43
2019-01-29T07:09:48.384Z,4.57
2019-01-29T07:12:18.219Z,5.87
2019-01-29T07:14:47.965Z,6.43
2019-01-29T07:17:35.953Z,2.40
2019-01-29T07:20:08.646Z,5.97
2019-01-29T07:22:38.440Z,5.97
2019-01-29T07:25:09.777Z,7.70
2019-01-29T07:27:39.647Z,11.60
2019-01-29T07:30:12.697Z,7.33
2019-01-29T07:32:42.434Z,12.57
2019-01-29T07:35:12.274Z,2.93
2019-01-29T07:37:42.123Z,5.50
2019-01-29T07:40:11.980Z,6.33
2019-01-29T07:42:41.705Z,6.67
2019-01-29T07:45:13.144Z,13.00
2019-01-29T07:47:42.721Z,5.60
2019-01-29T07:50:12.589Z,7.87
2019-01-29T07:52:42.355Z,5.20
2019-01-29T07:55:12.421Z,6.10
2019-01-29T07:57:43.810Z,4.87
2019-01-29T08:00:13.629Z,11.20
2019-01-29T08:02:43.402Z,3.57
2019-01-29T08:05:13.321Z,5.87
2019-01-29T08:07:43.295Z,6.90
2019-01-29T08:10:13.434Z,5.53
2019-01-29T08:12:44.190Z,2.30
2019-01-29T08:15:15.782Z,3.50
2019-01-29T08:17:45.635Z,3.63
2019-01-29T08:20:18.627Z,5.43
2019-01-29T08:22:48.437Z,6.63
2019-01-29T08:25:18.347Z,11.53
2019-01-29T08:27:48.141Z,7.50
2019-01-29T08:30:18.058Z,3.40
2019-01-29T08:32:47.848Z,3.17
2019-01-29T08:35:17.946Z,2.00
2019-01-29T08:37:47.950Z,3.57
2019-01-29T08:40:17.900Z,9.20
2019-01-29T08:42:47.735Z,4.47
2019-01-29T08:45:17.834Z,4.57
2019-01-29T08:47:49.127Z,5.03
2019-01-29T08:50:21.165Z,3.63
2019-01-29T08:52:51.102Z,2.53
2019-01-29T08:55:21.107Z,7.23
2019-01-29T08:57:50.969Z,2.90
2019-01-29T09:00:20.668Z,7.27
2019-01-29T09:02:50.421Z,2.40
2019-01-29T09:05:20.737Z,5.03
2019-01-29T09:07:51.517Z,3.50
2019-01-29T09:10:21.668Z,5.90
2019-01-29T09:12:51.739Z,2.40
2019-01-29T09:15:21.667Z,4.00
2019-01-29T09:17:51.676Z,4.90
2019-01-29T09:20:21.523Z,2.20
2019-01-29T09:22:51.453Z,4.53
2019-01-29T09:25:30.076Z,1.97
2019-01-29T09:27:59.830Z,2.83
2019-01-29T09:30:29.457Z,2.60
2019-01-29T09:32:59.273Z,2.20
2019-01-29T09:35:29.063Z,3.20
2019-01-29T09:37:58.830Z,3.73
2019-01-29T09:40:28.451Z,7.90
2019-01-29T09:42:58.238Z,5.50
2019-01-29T09:45:28.149Z,3.90
2019-01-29T09:47:57.986Z,3.27
2019-01-29T09:50:27.654Z,1.83
2019-01-29T09:52:57.429Z,3.33
2019-01-29T09:55:29.606Z,1.60
2019-01-29T09:57:59.045Z,3.50
2019-01-29T10:00:30.991Z,1.63
2019-01-29T10:03:00.820Z,5.33
2019-01-29T10:05:30.620Z,4.83
2019-01-29T10:08:00.494Z,4.80
2019-01-29T10:10:30.450Z,2.73
2019-01-29T10:13:00.877Z,1.83
2019-01-29T10:15:32.381Z,3.87
2019-01-29T10:18:02.585Z,4.80
2019-01-29T10:20:34.053Z,5.53
2019-01-29T10:23:03.890Z,3.97
2019-01-29T10:25:37.960Z,5.50
2019-01-29T10:28:05.769Z,4.43
2019-01-29T10:30:35.434Z,2.93
2019-01-29T10:33:05.418Z,3.07
2019-01-29T10:35:35.263Z,3.20
2019-01-29T10:38:04.978Z,3.67
2019-01-29T10:40:34.761Z,4.50
2019-01-29T10:43:04.702Z,2.80
2019-01-29T10:45:34.808Z,1.97
2019-01-29T10:48:04.855Z,2.37
2019-01-29T10:50:36.392Z,2.73
2019-01-29T10:53:06.343Z,2.27
2019-01-29T10:55:36.154Z,2.10
2019-01-29T10:58:06.749Z,1.73
2019-01-29T11:00:39.047Z,1.90
2019-01-29T11:03:10.046Z,7.90
2019-01-29T11:05:40.171Z,4.13
2019-01-29T11:08:10.310Z,2.47
2019-01-29T11:10:41.052Z,3.40
2019-01-29T11:13:10.897Z,2.43
2019-01-29T11:15:42.822Z,1.97
2019-01-29T11:18:15.570Z,2.07
2019-01-29T11:20:45.320Z,5.00
2019-01-29T11:23:16.110Z,1.27
2019-01-29T11:25:45.955Z,3.37
2019-01-29T11:28:15.774Z,1.83
2019-01-29T11:30:45.562Z,2.53
2019-01-29T11:33:15.399Z,2.70
2019-01-29T11:35:45.229Z,1.87
2019-01-29T11:38:15.970Z,2.40
2019-01-29T11:40:45.774Z,5.77
2019-01-29T11:43:15.422Z,4.20
2019-01-29T11:45:48.554Z,1.37
2019-01-29T11:48:18.570Z,2.00
2019-01-29T11:50:48.258Z,2.80
2019-01-29T11:53:18.061Z,3.83
2019-01-29T11:55:49.255Z,1.37
2019-01-29T11:58:19.039Z,1.73
2019-01-29T12:01:14.109Z,1.27
2019-01-29T12:03:43.906Z,3.90
2019-01-29T12:06:13.718Z,2.47
2019-01-29T12:08:43.602Z,1.00
2019-01-29T12:11:15.155Z,3.83
2019-01-29T12:13:45.057Z,2.43
2019-01-29T12:16:16.730Z,1.73
2019-01-29T12:18:46.458Z,3.10
2019-01-29T12:21:16.395Z,6.10
2019-01-29T12:23:46.173Z,1.67
2019-01-29T12:26:17.458Z,2.40
2019-01-29T12:28:47.297Z,1.03
2019-01-29T12:31:18.162Z,1.87
2019-01-29T12:33:47.917Z,2.10
2019-01-29T12:36:17.633Z,1.83
2019-01-29T12:38:47.392Z,1.63
2019-01-29T12:41:17.161Z,1.40
2019-01-29T12:43:48.065Z,2.00
2019-01-29T12:46:17.780Z,1.30
2019-01-29T12:48:47.603Z,2.30
2019-01-29T12:51:36.292Z,0.90
2019-01-29T12:54:06.369Z,0.97
2019-01-29T12:56:36.201Z,1.57
2019-01-29T12:59:06.230Z,3.47
2019-01-29T13:01:36.130Z,2.93
2019-01-29T13:04:07.374Z,2.03
2019-01-29T13:06:37.331Z,1.77
2019-01-29T13:09:09.578Z,3.33
2019-01-29T13:11:40.364Z,2.77
2019-01-29T13:14:10.484Z,2.40
2019-01-29T13:16:41.893Z,1.80
2019-01-29T13:19:11.594Z,2.00
2019-01-29T13:21:41.548Z,1.90
2019-01-29T13:24:11.320Z,2.90
2019-01-29T13:26:42.801Z,2.97
2019-01-29T13:29:12.615Z,4.70
2019-01-29T13:31:42.386Z,2.27
2019-01-29T13:34:13.942Z,1.27
2019-01-29T13:36:43.792Z,3.63
2019-01-29T13:39:13.516Z,2.00
2019-01-29T13:41:45.105Z,2.77
2019-01-29T13:44:14.888Z,5.60
2019-01-29T13:46:44.643Z,6.57
2019-01-29T13:49:14.508Z,15.57
2019-01-29T13:51:45.298Z,32.47
2019-01-29T13:54:15.211Z,40.33
2019-01-29T13:56:44.850Z,48.63
2019-01-29T13:59:14.629Z,70.47
2019-01-29T14:01:44.474Z,54.83
2019-01-29T14:04:14.237Z,58.77
2019-01-29T14:06:44.081Z,60.90
2019-01-29T14:09:13.989Z,62.73
2019-01-29T14:11:45.128Z,71.40
2019-01-29T14:14:15.274Z,56.30
2019-01-29T14:16:45.964Z,56.87
2019-01-29T14:19:15.807Z,47.50
2019-01-29T14:21:46.626Z,48.23
2019-01-29T14:24:18.108Z,42.23
2019-01-29T14:26:48.301Z,42.13
2019-01-29T14:29:18.051Z,46.07
2019-01-29T14:31:49.398Z,33.30
2019-01-29T14:34:19.289Z,40.93
2019-01-29T14:36:48.981Z,43.23
2019-01-29T14:39:28.274Z,35.30
2019-01-29T14:41:58.040Z,31.83
2019-01-29T14:44:34.126Z,39.07
2019-01-29T14:47:04.055Z,36.90
2019-01-29T14:49:34.009Z,35.73
2019-01-29T14:52:03.727Z,37.27
2019-01-29T14:54:33.509Z,38.63
2019-01-29T14:57:03.282Z,39.50
2019-01-29T14:59:36.525Z,33.60
2019-01-29T15:02:06.280Z,28.50
2019-01-29T15:04:36.542Z,28.20
2019-01-29T15:07:06.890Z,32.53
2019-01-29T15:09:36.900Z,27.10
2019-01-29T15:12:06.554Z,27.87
2019-01-29T15:14:36.313Z,29.30
2019-01-29T15:17:25.313Z,24.00
2019-01-29T15:19:55.336Z,28.73
2019-01-29T15:22:25.101Z,23.00
2019-01-29T15:24:57.345Z,25.80
2019-01-29T15:27:27.163Z,24.80
2019-01-29T15:29:57.005Z,28.30
2019-01-29T15:32:26.787Z,23.90
2019-01-29T15:34:56.721Z,23.93
2019-01-29T15:37:26.541Z,38.13
2019-01-29T15:39:56.396Z,31.80
2019-01-29T15:42:26.264Z,26.83
2019-01-29T15:44:56.035Z,21.20
2019-01-29T15:47:25.831Z,27.20
2019-01-29T15:49:57.387Z,40.87
2019-01-29T15:52:27.110Z,26.47
2019-01-29T15:54:56.946Z,22.97
2019-01-29T15:57:28.108Z,31.23
2019-01-29T15:59:57.806Z,22.30
2019-01-29T16:02:27.817Z,26.57
2019-01-29T16:04:58.603Z,24.13
2019-01-29T16:07:28.548Z,21.17
2019-01-29T16:09:58.346Z,21.13
2019-01-29T16:12:28.151Z,15.60
2019-01-29T16:14:57.970Z,21.70
2019-01-29T16:17:27.820Z,24.43
2019-01-29T16:19:57.555Z,18.00
2019-01-29T16:22:27.342Z,20.70
2019-01-29T16:24:57.162Z,14.13
2019-01-29T16:27:26.933Z,13.63
2019-01-29T16:29:56.846Z,13.90
2019-01-29T16:32:26.538Z,15.43
2019-01-29T16:34:56.358Z,14.33
2019-01-29T16:37:26.088Z,10.43
2019-01-29T16:39:55.790Z,12.47
2019-01-29T16:42:25.590Z,18.00
2019-01-29T16:44:56.235Z,16.60
2019-01-29T16:47:25.983Z,12.70
2019-01-29T16:49:55.760Z,14.20
2019-01-29T16:52:28.915Z,11.37
2019-01-29T16:54:58.734Z,12.83
2019-01-29T16:57:31.885Z,12.43
2019-01-29T17:00:01.610Z,14.87
2019-01-29T17:02:31.763Z,13.07
2019-01-29T17:05:01.544Z,8.77
2019-01-29T17:07:31.352Z,12.43
2019-01-29T17:10:01.222Z,8.33
2019-01-29T17:12:30.991Z,11.80
2019-01-29T17:15:00.898Z,9.23
2019-01-29T17:17:30.589Z,9.03
2019-01-29T17:20:00.342Z,10.73
2019-01-29T17:22:30.230Z,8.70
2019-01-29T17:25:00.957Z,10.80
2019-01-29T17:27:30.767Z,7.70
2019-01-29T17:30:00.603Z,7.60
2019-01-29T17:32:31.437Z,8.63
2019-01-29T17:35:01.225Z,7.50
2019-01-29T17:37:31.003Z,9.50
2019-01-29T17:40:02.048Z,7.57
2019-01-29T17:42:31.892Z,7.07
2019-01-29T17:45:01.546Z,7.50
2019-01-29T17:47:31.282Z,5.17
2019-01-29T17:50:01.261Z,4.90
2019-01-29T17:52:32.357Z,4.73
2019-01-29T17:55:02.525Z,8.87
2019-01-29T17:57:32.169Z,8.97
2019-01-29T18:00:02.095Z,6.37
2019-01-29T18:02:32.141Z,7.13
2019-01-29T18:05:01.875Z,6.43
2019-01-29T18:07:33.332Z,7.67
2019-01-29T18:10:03.211Z,6.03
2019-01-29T18:12:32.830Z,7.03
2019-01-29T18:15:02.614Z,9.63
2019-01-29T18:17:32.457Z,14.73
2019-01-29T18:20:02.253Z,6.57
2019-01-29T18:22:32.069Z,5.97
2019-01-29T18:25:01.669Z,7.50
2019-01-29T18:27:31.402Z,6.37
2019-01-29T18:30:01.168Z,5.10
2019-01-29T18:32:30.863Z,6.83
2019-01-29T18:35:00.785Z,4.40
2019-01-29T18:37:30.806Z,8.10
2019-01-29T18:40:02.277Z,6.90
2019-01-29T18:42:32.057Z,7.00
2019-01-29T18:45:01.714Z,9.13
2019-01-29T18:47:31.434Z,5.87
2019-01-29T18:50:01.298Z,7.47
2019-01-29T18:52:31.022Z,8.03
2019-01-29T18:55:01.004Z,6.90
2019-01-29T18:57:30.887Z,3.70
2019-01-29T19:00:00.629Z,4.60
2019-01-29T19:02:30.470Z,6.33
2019-01-29T19:05:02.489Z,12.47
2019-01-29T19:07:32.317Z,7.97
2019-01-29T19:10:02.141Z,5.83
2019-01-29T19:12:31.910Z,6.33
2019-01-29T19:15:01.786Z,7.53
2019-01-29T19:17:31.565Z,4.80
2019-01-29T19:20:01.365Z,5.47
2019-01-29T19:22:31.439Z,7.67
2019-01-29T19:25:01.202Z,11.73
2019-01-29T19:27:30.997Z,4.53
2019-01-29T19:30:00.989Z,6.67
2019-01-29T19:32:30.615Z,3.40
2019-01-29T19:35:00.443Z,8.70
2019-01-29T19:37:31.195Z,4.77
2019-01-29T19:40:00.965Z,3.80
2019-01-29T19:42:30.925Z,5.77
2019-01-29T19:45:00.785Z,8.43
2019-01-29T19:47:30.581Z,4.57
2019-01-29T19:50:00.439Z,4.07
2019-01-29T19:52:31.323Z,3.43
2019-01-29T19:55:01.425Z,9.43
2019-01-29T19:57:31.489Z,3.00
2019-01-29T20:00:02.331Z,3.90
2019-01-29T20:02:32.233Z,6.67
2019-01-29T20:05:02.011Z,5.37
2019-01-29T20:07:32.030Z,5.00
2019-01-29T20:10:01.927Z,3.30
2019-01-29T20:12:31.651Z,8.87
2019-01-29T20:15:01.407Z,4.60
2019-01-29T20:17:31.237Z,2.93
2019-01-29T20:20:05.381Z,4.60
2019-01-29T20:22:35.232Z,10.07
2019-01-29T20:25:05.346Z,4.90
2019-01-29T20:27:35.126Z,5.87
2019-01-29T20:30:07.320Z,6.67
2019-01-29T20:32:38.118Z,3.40
2019-01-29T20:35:07.987Z,4.33
2019-01-29T20:37:37.769Z,2.67
2019-01-29T20:40:11.430Z,5.47
2019-01-29T20:42:41.185Z,6.33
2019-01-29T20:45:11.594Z,6.77
2019-01-29T20:47:41.389Z,8.57
2019-01-29T20:50:19.676Z,2.97
2019-01-29T20:52:50.662Z,4.63
2019-01-29T20:55:20.611Z,4.50
2019-01-29T20:57:51.314Z,5.83
2019-01-29T21:00:23.878Z,6.60
2019-01-29T21:02:53.685Z,4.23
2019-01-29T21:05:23.621Z,3.47
2019-01-29T21:07:53.443Z,4.67
2019-01-29T21:10:24.218Z,4.00
2019-01-29T21:12:54.418Z,4.30
2019-01-29T21:15:24.452Z,12.80
2019-01-29T21:17:54.714Z,4.60
2019-01-29T21:20:26.472Z,11.50
2019-01-29T21:22:56.457Z,4.40
2019-01-29T21:25:26.220Z,43.03
2019-01-29T21:27:56.220Z,9.57
2019-01-29T21:30:30.893Z,8.87
2019-01-29T21:33:00.688Z,5.90
2019-01-29T21:35:31.354Z,15.80
2019-01-29T21:38:01.184Z,14.60
2019-01-29T21:40:31.137Z,6.17
2019-01-29T21:43:02.226Z,4.37
2019-01-29T21:45:32.150Z,4.20
2019-01-29T21:48:02.794Z,3.27
2019-01-29T21:50:33.518Z,4.40
2019-01-29T21:53:03.645Z,6.37
2019-01-29T21:55:35.233Z,5.17
2019-01-29T21:58:05.978Z,4.47
2019-01-29T22:00:38.828Z,14.03
2019-01-29T22:03:09.186Z,6.63
2019-01-29T22:05:39.149Z,4.97
2019-01-29T22:08:10.270Z,4.43
2019-01-29T22:10:41.105Z,7.20
2019-01-29T22:13:12.149Z,7.33
2019-01-29T22:15:44.850Z,4.53
2019-01-29T22:18:15.554Z,5.30
2019-01-29T22:20:45.378Z,5.67
2019-01-29T22:23:15.142Z,7.30
2019-01-29T22:25:45.906Z,3.73
2019-01-29T22:28:15.638Z,3.43
2019-01-29T22:30:46.193Z,4.73
2019-01-29T22:33:15.979Z,5.20
2019-01-29T22:35:46.826Z,11.03
2019-01-29T22:38:16.573Z,9.97
2019-01-29T22:40:46.438Z,3.10
2019-01-29T22:43:16.191Z,4.37
2019-01-29T22:45:46.853Z,8.00
2019-01-29T22:48:16.723Z,4.00
2019-01-29T22:50:46.436Z,4.00
2019-01-29T22:53:16.191Z,4.80
2019-01-29T22:55:45.886Z,9.10
2019-01-29T22:58:15.674Z,2.77
2019-01-29T23:01:19.297Z,4.33
2019-01-29T23:03:58.886Z,3.30
2019-01-29T23:06:56.696Z,6.07
2019-01-29T23:09:26.438Z,2.60
2019-01-29T23:11:56.608Z,8.53
2019-01-29T23:14:26.501Z,3.80
2019-01-29T23:16:56.089Z,3.00
